createdAt,value
2023-09-27T00:01:56.594Z,0.95
2023-09-27T00:04:26.992Z,1.65
2023-09-27T00:06:57.434Z,0.73
2023-09-27T00:09:27.690Z,1.33
2023-09-27T00:11:59.314Z,2.87
2023-09-27T00:14:29.618Z,2.38
2023-09-27T00:17:02.950Z,1.63
2023-09-27T00:19:34.074Z,1.45
2023-09-27T00:22:04.362Z,1.98
2023-09-27T00:24:35.545Z,1.60
2023-09-27T00:29:36.054Z,2.28
2023-09-27T00:32:09.912Z,1.33
2023-09-27T00:34:40.225Z,1.95
2023-09-27T00:37:11.107Z,0.90
2023-09-27T00:39:41.298Z,2.05
2023-09-27T00:42:11.550Z,1.93
2023-09-27T00:44:41.774Z,1.13
2023-09-27T00:47:15.523Z,1.17
2023-09-27T00:49:47.706Z,1.63
2023-09-27T00:52:18.018Z,1.33
2023-09-27T00:54:49.976Z,2.53
2023-09-27T00:57:20.508Z,1.33
2023-09-27T00:59:51.021Z,1.95
2023-09-27T01:02:24.227Z,1.00
2023-09-27T01:04:55.921Z,1.45
2023-09-27T01:07:26.190Z,1.90
2023-09-27T01:09:56.534Z,1.27
2023-09-27T01:12:27.023Z,2.13
2023-09-27T01:14:57.705Z,1.25
2023-09-27T01:17:30.571Z,1.63
2023-09-27T01:20:00.893Z,1.10
2023-09-27T01:22:31.128Z,1.00
2023-09-27T01:25:06.103Z,1.33
2023-09-27T01:27:36.640Z,0.82
2023-09-27T01:30:07.231Z,1.95
2023-09-27T01:32:37.780Z,1.05
2023-09-27T01:35:09.742Z,0.80
2023-09-27T01:37:40.232Z,0.82
2023-09-27T01:40:18.616Z,0.90
2023-09-27T01:42:48.908Z,0.80
2023-09-27T01:45:19.301Z,0.77
2023-09-27T01:47:49.621Z,0.85
2023-09-27T01:50:21.104Z,1.57
2023-09-27T01:52:51.354Z,1.00
2023-09-27T01:55:24.658Z,1.37
2023-09-27T01:57:55.196Z,1.98
2023-09-27T02:00:25.642Z,2.00
2023-09-27T02:03:00.399Z,3.67
2023-09-27T02:05:32.924Z,3.50
2023-09-27T02:08:03.332Z,1.35
2023-09-27T02:10:36.228Z,2.63
2023-09-27T02:13:06.958Z,0.93
2023-09-27T02:15:37.405Z,3.80
2023-09-27T02:18:08.278Z,2.38
2023-09-27T02:20:38.920Z,1.52
2023-09-27T02:23:09.344Z,2.15
2023-09-27T02:25:42.668Z,1.17
2023-09-27T02:28:12.891Z,1.17
2023-09-27T02:30:43.743Z,0.80
2023-09-27T02:33:13.976Z,1.13
2023-09-27T02:35:45.012Z,0.63
2023-09-27T02:38:15.590Z,0.80
2023-09-27T02:40:48.562Z,1.17
2023-09-27T02:43:19.081Z,1.08
2023-09-27T02:45:50.954Z,1.92
2023-09-27T02:48:21.209Z,1.48
2023-09-27T02:50:53.877Z,5.00
2023-09-27T02:53:24.617Z,0.60
2023-09-27T02:55:57.490Z,0.60
2023-09-27T02:58:27.660Z,1.67
2023-09-27T03:00:58.380Z,1.15
2023-09-27T03:03:29.161Z,0.93
2023-09-27T03:05:59.486Z,1.10
2023-09-27T03:08:31.072Z,0.85
2023-09-27T03:11:08.143Z,1.23
2023-09-27T03:13:38.457Z,0.70
2023-09-27T03:16:08.860Z,1.57
2023-09-27T03:18:39.174Z,2.33
2023-09-27T03:21:09.749Z,4.37
2023-09-27T03:23:40.014Z,2.90
2023-09-27T03:26:13.255Z,1.38
2023-09-27T03:28:43.534Z,1.02
2023-09-27T03:31:13.969Z,1.43
2023-09-27T03:33:44.190Z,0.73
2023-09-27T03:36:14.426Z,1.85
2023-09-27T03:38:44.626Z,2.73
2023-09-27T03:41:17.622Z,1.50
2023-09-27T03:43:49.183Z,0.80
2023-09-27T03:46:19.562Z,0.80
2023-09-27T03:48:49.855Z,1.30
2023-09-27T03:51:27.603Z,1.20
2023-09-27T03:53:58.231Z,1.55
2023-09-27T03:56:36.177Z,0.73
2023-09-27T03:59:06.763Z,1.73
2023-09-27T04:01:37.329Z,1.02
2023-09-27T04:04:08.144Z,1.02
2023-09-27T04:06:38.757Z,1.70
2023-09-27T04:09:10.821Z,0.63
2023-09-27T04:11:43.835Z,1.05
2023-09-27T04:14:14.229Z,2.83
2023-09-27T04:16:44.475Z,1.08
2023-09-27T04:19:14.846Z,0.80
2023-09-27T04:21:45.005Z,1.52
2023-09-27T04:24:15.313Z,2.97
2023-09-27T04:26:48.265Z,0.70
2023-09-27T04:29:18.587Z,2.58
2023-09-27T04:31:48.882Z,2.92
2023-09-27T04:34:19.299Z,5.73
2023-09-27T04:36:49.502Z,9.60
2023-09-27T04:39:20.768Z,5.60
2023-09-27T04:41:53.550Z,6.22
2023-09-27T04:44:24.450Z,7.53
2023-09-27T04:46:55.761Z,27.60
2023-09-27T04:49:25.960Z,18.45
2023-09-27T04:51:56.163Z,26.85
2023-09-27T04:54:26.497Z,32.17
2023-09-27T04:56:59.625Z,21.80
2023-09-27T04:59:29.938Z,24.10
2023-09-27T05:02:00.256Z,10.73
2023-09-27T05:04:30.446Z,28.83
2023-09-27T05:07:00.840Z,21.63
2023-09-27T05:09:31.394Z,21.05
2023-09-27T05:12:05.049Z,14.88
2023-09-27T05:14:35.482Z,26.70
2023-09-27T05:17:06.407Z,12.23
2023-09-27T05:19:36.814Z,15.50
2023-09-27T05:22:07.084Z,19.40
2023-09-27T05:24:40.377Z,16.87
2023-09-27T05:27:13.298Z,11.43
2023-09-27T05:29:43.684Z,22.35
2023-09-27T05:32:14.142Z,26.98
2023-09-27T05:34:44.664Z,23.35
2023-09-27T05:37:16.117Z,16.63
2023-09-27T05:39:46.463Z,15.45
2023-09-27T05:42:19.305Z,14.00
2023-09-27T05:44:49.610Z,11.73
2023-09-27T05:47:19.979Z,12.47
2023-09-27T05:49:50.366Z,12.85
2023-09-27T05:52:20.660Z,10.75
2023-09-27T05:54:52.937Z,20.77
2023-09-27T05:57:25.866Z,26.70
2023-09-27T05:59:56.137Z,19.23
2023-09-27T06:02:32.612Z,20.70
2023-09-27T06:05:04.986Z,14.43
2023-09-27T06:07:35.295Z,14.32
2023-09-27T06:10:05.897Z,14.97
2023-09-27T06:12:38.952Z,17.73
2023-09-27T06:15:11.401Z,17.42
2023-09-27T06:17:41.830Z,9.48
2023-09-27T06:20:21.662Z,8.90
2023-09-27T06:22:54.368Z,11.70
2023-09-27T06:25:30.456Z,10.88
2023-09-27T06:28:04.329Z,7.18
2023-09-27T06:30:34.848Z,5.18
2023-09-27T06:33:05.228Z,20.80
2023-09-27T06:35:35.929Z,10.63
2023-09-27T06:38:07.260Z,4.57
2023-09-27T06:40:37.878Z,13.50
2023-09-27T06:43:10.855Z,18.75
2023-09-27T06:45:44.296Z,8.85
2023-09-27T06:48:14.956Z,9.40
2023-09-27T06:50:48.456Z,13.32
2023-09-27T06:53:24.236Z,10.07
2023-09-27T06:55:57.128Z,11.43
2023-09-27T06:58:31.602Z,11.98
2023-09-27T07:01:02.291Z,16.13
2023-09-27T07:03:35.866Z,7.03
2023-09-27T07:06:07.219Z,12.30
2023-09-27T07:08:38.211Z,12.80
2023-09-27T07:11:09.722Z,9.77
2023-09-27T07:13:43.461Z,5.80
2023-09-27T07:16:28.058Z,5.55
2023-09-27T07:19:01.365Z,4.60
2023-09-27T07:21:32.146Z,8.05
2023-09-27T07:24:02.960Z,3.38
2023-09-27T07:26:34.384Z,8.23
2023-09-27T07:29:09.671Z,5.70
2023-09-27T07:31:40.631Z,5.00
2023-09-27T07:34:11.771Z,4.75
2023-09-27T07:39:13.185Z,3.00
2023-09-27T07:41:44.503Z,5.97
2023-09-27T07:44:19.659Z,5.20
2023-09-27T07:46:50.432Z,6.28
2023-09-27T07:49:21.102Z,4.20
2023-09-27T07:51:51.853Z,4.50
2023-09-27T07:54:22.876Z,2.65
2023-09-27T07:59:29.890Z,3.05
2023-09-27T08:02:00.963Z,2.30
2023-09-27T08:04:31.782Z,2.95
2023-09-27T08:07:02.416Z,3.85
2023-09-27T08:09:41.009Z,2.05
2023-09-27T08:12:12.153Z,4.03
2023-09-27T08:14:45.707Z,2.53
2023-09-27T08:17:16.723Z,4.35
2023-09-27T08:19:47.377Z,3.53
2023-09-27T08:22:18.505Z,3.13
2023-09-27T08:24:49.695Z,3.33
2023-09-27T08:27:21.400Z,4.30
2023-09-27T08:29:54.618Z,2.70
2023-09-27T08:32:25.348Z,3.08
2023-09-27T08:34:56.002Z,4.70
2023-09-27T08:37:26.399Z,6.28
2023-09-27T08:39:57.468Z,7.05
2023-09-27T08:42:28.870Z,8.23
2023-09-27T08:45:04.833Z,7.28
2023-09-27T08:47:36.772Z,6.63
2023-09-27T08:50:07.848Z,4.35
2023-09-27T08:52:42.824Z,6.05
2023-09-27T08:55:14.679Z,4.18
2023-09-27T08:57:50.213Z,9.65
2023-09-27T09:00:28.806Z,7.43
2023-09-27T09:03:04.666Z,3.80
2023-09-27T09:05:36.282Z,9.25
2023-09-27T09:08:09.101Z,3.15
2023-09-27T09:10:41.825Z,3.75
2023-09-27T09:13:15.620Z,8.25
2023-09-27T09:15:50.432Z,8.02
2023-09-27T09:18:34.647Z,6.88
2023-09-27T09:21:10.430Z,8.30
2023-09-27T09:23:48.170Z,2.97
2023-09-27T09:26:31.292Z,3.90
2023-09-27T09:29:04.090Z,5.38
2023-09-27T09:31:37.432Z,5.32
2023-09-27T09:34:08.388Z,8.60
2023-09-27T09:36:40.117Z,3.80
2023-09-27T09:39:15.255Z,2.00
2023-09-27T09:41:50.462Z,3.85
2023-09-27T09:44:21.070Z,3.65
2023-09-27T09:46:58.505Z,2.15
2023-09-27T09:49:29.221Z,0.98
2023-09-27T09:52:01.321Z,1.38
2023-09-27T09:54:39.573Z,3.17
2023-09-27T09:57:18.700Z,1.40
2023-09-27T10:00:00.240Z,3.03
2023-09-27T10:05:10.266Z,3.25
2023-09-27T10:07:42.568Z,2.65
2023-09-27T10:10:15.131Z,2.78
2023-09-27T10:12:46.797Z,3.20
2023-09-27T10:15:19.466Z,1.58
2023-09-27T10:17:53.201Z,4.38
2023-09-27T10:20:25.922Z,1.60
2023-09-27T10:22:59.120Z,1.65
2023-09-27T10:25:39.300Z,2.75
2023-09-27T10:28:14.247Z,1.67
2023-09-27T10:31:19.552Z,2.78
2023-09-27T10:33:55.191Z,3.00
2023-09-27T10:36:35.794Z,1.55
2023-09-27T10:39:10.809Z,2.15
2023-09-27T10:41:48.824Z,2.35
2023-09-27T10:44:35.047Z,2.15
2023-09-27T10:47:07.912Z,1.50
2023-09-27T10:49:45.176Z,1.80
2023-09-27T10:52:20.451Z,1.67
2023-09-27T10:54:53.532Z,1.92
2023-09-27T10:57:25.765Z,2.05
2023-09-27T10:59:56.906Z,3.15
2023-09-27T11:02:34.382Z,2.03
2023-09-27T11:05:08.280Z,1.58
2023-09-27T11:07:54.213Z,2.70
2023-09-27T11:10:36.310Z,1.35
2023-09-27T11:13:12.183Z,1.40
2023-09-27T11:15:43.508Z,2.53
2023-09-27T11:18:14.957Z,1.20
2023-09-27T11:20:50.015Z,1.60
2023-09-27T11:23:22.586Z,1.98
2023-09-27T11:25:53.916Z,2.55
2023-09-27T11:28:24.725Z,2.22
2023-09-27T11:31:02.189Z,1.30
2023-09-27T11:33:36.160Z,1.70
2023-09-27T11:36:12.387Z,1.55
2023-09-27T11:38:43.016Z,1.20
2023-09-27T11:41:18.288Z,3.15
2023-09-27T11:43:50.738Z,3.58
2023-09-27T11:46:33.616Z,1.75
2023-09-27T11:49:11.982Z,1.25
2023-09-27T11:51:45.300Z,3.22
2023-09-27T11:54:16.788Z,1.70
2023-09-27T11:56:48.523Z,1.70
2023-09-27T11:59:19.273Z,1.58
2023-09-27T12:01:50.150Z,1.77
2023-09-27T12:04:20.835Z,1.00
2023-09-27T12:06:54.540Z,4.63
2023-09-27T12:09:25.240Z,3.20
2023-09-27T12:11:55.986Z,5.72
2023-09-27T12:14:26.645Z,7.38
2023-09-27T12:16:57.489Z,5.82
2023-09-27T12:19:28.029Z,7.43
2023-09-27T12:22:01.484Z,7.03
2023-09-27T12:24:32.435Z,4.97
2023-09-27T12:27:03.355Z,3.92
2023-09-27T12:29:34.533Z,5.82
2023-09-27T12:32:05.209Z,8.98
2023-09-27T12:34:37.175Z,10.07
2023-09-27T12:37:12.395Z,14.50
2023-09-27T12:39:42.818Z,12.15
2023-09-27T12:42:13.464Z,8.68
2023-09-27T12:44:44.570Z,19.80
2023-09-27T12:49:48.174Z,22.85
2023-09-27T12:52:21.519Z,14.88
2023-09-27T12:54:52.365Z,4.90
2023-09-27T12:57:22.740Z,8.30
2023-09-27T12:59:53.844Z,13.05
2023-09-27T13:04:55.834Z,11.73
2023-09-27T13:07:28.919Z,12.75
2023-09-27T13:09:59.557Z,11.88
2023-09-27T13:12:30.133Z,10.18
2023-09-27T13:15:01.231Z,8.32
2023-09-27T13:17:32.205Z,8.90
2023-09-27T13:20:02.636Z,7.88
2023-09-27T13:22:35.744Z,5.80
2023-09-27T13:25:07.961Z,7.53
2023-09-27T13:27:38.675Z,7.63
2023-09-27T13:30:32.988Z,7.22
2023-09-27T13:33:06.781Z,7.20
2023-09-27T13:35:39.589Z,8.35
2023-09-27T13:38:14.320Z,4.40
2023-09-27T13:40:45.607Z,5.22
2023-09-27T13:43:16.454Z,2.85
2023-09-27T13:45:48.241Z,4.15
2023-09-27T13:48:19.125Z,4.32
2023-09-27T13:50:49.809Z,3.10
2023-09-27T13:53:22.986Z,3.90
2023-09-27T13:55:53.944Z,13.75
2023-09-27T13:58:24.627Z,5.35
2023-09-27T14:00:56.189Z,6.93
2023-09-27T14:03:26.905Z,10.13
2023-09-27T14:05:57.380Z,8.73
2023-09-27T14:08:30.743Z,7.80
2023-09-27T14:11:01.878Z,7.05
2023-09-27T14:16:02.504Z,5.93
2023-09-27T14:18:33.073Z,8.43
2023-09-27T14:21:03.696Z,6.72
2023-09-27T14:23:37.604Z,11.45
2023-09-27T14:26:09.365Z,4.88
2023-09-27T14:28:40.474Z,7.93
2023-09-27T14:31:10.894Z,8.48
2023-09-27T14:33:41.680Z,7.97
2023-09-27T14:36:12.370Z,6.18
2023-09-27T14:38:47.183Z,20.83
2023-09-27T14:41:17.787Z,16.30
2023-09-27T14:43:48.345Z,10.13
2023-09-27T14:46:19.329Z,11.73
2023-09-27T14:51:21.755Z,7.13
2023-09-27T14:53:55.060Z,6.35
2023-09-27T14:56:25.560Z,8.40
2023-09-27T14:58:56.191Z,11.32
2023-09-27T15:01:26.808Z,9.85
2023-09-27T15:03:57.795Z,4.13
2023-09-27T15:09:01.876Z,6.03
2023-09-27T15:11:32.672Z,9.40
2023-09-27T15:14:04.067Z,13.20
2023-09-27T15:16:38.612Z,11.07
2023-09-27T15:19:09.765Z,9.35
2023-09-27T15:21:41.059Z,15.77
2023-09-27T15:24:15.290Z,9.48
2023-09-27T15:26:49.241Z,11.45
2023-09-27T15:29:19.966Z,11.93
2023-09-27T15:31:50.827Z,12.43
2023-09-27T15:34:22.169Z,9.20
2023-09-27T15:36:53.058Z,9.18
2023-09-27T15:39:26.724Z,15.48
2023-09-27T15:41:58.345Z,13.77
2023-09-27T15:44:30.748Z,10.23
2023-09-27T15:47:01.903Z,9.73
2023-09-27T15:49:33.463Z,14.93
2023-09-27T15:52:03.947Z,9.85
2023-09-27T15:54:37.464Z,11.32
2023-09-27T15:57:08.545Z,4.57
2023-09-27T16:04:51.522Z,17.67
2023-09-27T16:07:23.173Z,27.05
2023-09-27T16:09:56.563Z,17.27
2023-09-27T16:12:27.743Z,17.65
2023-09-27T16:17:28.589Z,13.23
2023-09-27T16:19:59.381Z,16.30
2023-09-27T16:22:29.765Z,12.25
2023-09-27T16:25:05.110Z,19.23
2023-09-27T16:27:35.636Z,16.45
2023-09-27T16:30:07.270Z,16.17
2023-09-27T16:32:38.819Z,11.40
2023-09-27T16:35:10.575Z,13.35
2023-09-27T16:37:41.064Z,14.52
2023-09-27T16:40:15.531Z,15.15
2023-09-27T16:42:46.037Z,11.73
2023-09-27T16:45:17.223Z,11.00
2023-09-27T16:47:48.290Z,11.98
2023-09-27T16:52:48.925Z,9.35
2023-09-27T16:55:22.194Z,9.55
2023-09-27T16:57:52.805Z,7.65
2023-09-27T17:00:23.467Z,7.85
2023-09-27T17:02:55.261Z,8.05
2023-09-27T17:05:27.761Z,11.00
2023-09-27T17:07:58.902Z,10.30
2023-09-27T17:10:34.445Z,6.45
2023-09-27T17:13:12.829Z,5.78
2023-09-27T17:15:47.248Z,5.22
2023-09-27T17:18:18.598Z,8.25
2023-09-27T17:20:50.171Z,3.72
2023-09-27T17:23:26.368Z,4.88
2023-09-27T17:26:00.187Z,3.55
2023-09-27T17:28:31.064Z,7.78
2023-09-27T17:31:01.750Z,4.47
2023-09-27T17:33:35.939Z,8.15
2023-09-27T17:36:08.574Z,5.00
2023-09-27T17:38:40.411Z,4.30
2023-09-27T17:41:14.659Z,7.70
2023-09-27T17:43:45.597Z,3.25
2023-09-27T17:46:29.771Z,8.75
2023-09-27T17:49:05.844Z,9.88
2023-09-27T17:51:42.252Z,8.75
2023-09-27T17:54:14.053Z,23.75
2023-09-27T17:56:52.089Z,13.77
2023-09-27T17:59:23.782Z,14.88
2023-09-27T18:01:56.666Z,15.40
2023-09-27T18:04:31.058Z,14.73
2023-09-27T18:07:03.295Z,21.70
2023-09-27T18:09:34.301Z,15.38
2023-09-27T18:12:10.433Z,20.30
2023-09-27T18:14:43.476Z,19.67
2023-09-27T18:17:14.961Z,20.60
2023-09-27T18:19:47.458Z,18.75
2023-09-27T18:22:18.396Z,7.82
2023-09-27T18:24:54.177Z,14.82
2023-09-27T18:27:31.416Z,15.82
2023-09-27T18:30:02.714Z,17.17
2023-09-27T18:32:35.937Z,14.48
2023-09-27T18:35:11.576Z,11.40
2023-09-27T18:37:44.322Z,12.25
2023-09-27T18:40:16.128Z,6.03
2023-09-27T18:42:51.498Z,6.88
2023-09-27T18:45:23.635Z,13.57
2023-09-27T18:47:57.068Z,8.35
2023-09-27T18:50:29.540Z,9.30
2023-09-27T18:55:33.979Z,7.30
2023-09-27T18:58:08.360Z,4.22
2023-09-27T19:00:39.511Z,7.85
2023-09-27T19:05:43.277Z,9.73
2023-09-27T19:08:15.746Z,6.93
2023-09-27T19:10:47.194Z,7.45
2023-09-27T19:13:23.827Z,6.30
2023-09-27T19:15:56.761Z,6.60
2023-09-27T19:18:31.050Z,5.63
2023-09-27T19:21:11.689Z,7.43
2023-09-27T19:23:46.796Z,9.18
2023-09-27T19:26:24.155Z,9.32
2023-09-27T19:28:59.036Z,7.75
2023-09-27T19:31:38.846Z,7.13
2023-09-27T19:34:21.779Z,9.60
2023-09-27T19:37:02.142Z,8.20
2023-09-27T19:39:34.404Z,13.88
2023-09-27T19:42:08.500Z,28.73
2023-09-27T19:44:44.479Z,69.68
2023-09-27T19:47:21.917Z,295.52
2023-09-27T19:49:58.948Z,374.75
2023-09-27T19:52:34.919Z,357.27
2023-09-27T19:55:14.995Z,317.58
2023-09-27T19:57:50.234Z,294.67
2023-09-27T20:00:26.526Z,250.73
2023-09-27T20:03:06.041Z,193.38
2023-09-27T20:05:43.308Z,196.55
2023-09-27T20:08:15.608Z,172.90
2023-09-27T20:10:48.847Z,171.90
2023-09-27T20:13:26.516Z,162.52
2023-09-27T20:16:05.182Z,143.32
2023-09-27T20:18:40.005Z,135.48
2023-09-27T20:21:15.024Z,122.32
2023-09-27T20:23:51.036Z,118.07
2023-09-27T20:26:30.988Z,105.20
2023-09-27T20:29:03.213Z,94.47
2023-09-27T20:31:40.945Z,100.90
2023-09-27T20:34:13.039Z,90.43
2023-09-27T20:36:49.780Z,91.55
2023-09-27T20:39:23.842Z,88.78
2023-09-27T20:41:57.935Z,86.47
2023-09-27T20:44:31.287Z,70.18
2023-09-27T20:47:08.298Z,53.55
2023-09-27T20:49:43.680Z,56.75
2023-09-27T20:52:16.133Z,46.75
2023-09-27T20:54:50.206Z,46.53
2023-09-27T20:57:22.395Z,42.78
2023-09-27T20:59:59.061Z,41.63
2023-09-27T21:02:40.394Z,39.10
2023-09-27T21:05:22.589Z,34.47
2023-09-27T21:07:59.400Z,31.77
2023-09-27T21:10:32.691Z,26.80
2023-09-27T21:13:04.750Z,25.10
2023-09-27T21:15:38.092Z,25.38
2023-09-27T21:18:15.020Z,20.42
2023-09-27T21:20:48.684Z,20.42
2023-09-27T21:23:28.550Z,19.15
2023-09-27T21:26:00.011Z,17.45
2023-09-27T21:28:31.949Z,18.50
2023-09-27T21:31:03.295Z,16.00
2023-09-27T21:33:38.739Z,15.52
2023-09-27T21:36:10.955Z,13.13
2023-09-27T21:38:42.992Z,13.10
2023-09-27T21:41:14.551Z,11.45
2023-09-27T21:43:46.737Z,14.60
2023-09-27T21:46:25.891Z,13.43
2023-09-27T21:49:00.932Z,12.52
2023-09-27T21:51:33.280Z,11.57
2023-09-27T21:54:06.894Z,12.98
2023-09-27T21:56:38.757Z,10.45
2023-09-27T21:59:10.602Z,10.93
2023-09-27T22:01:45.155Z,11.90
2023-09-27T22:04:20.792Z,10.88
2023-09-27T22:06:54.192Z,11.35
2023-09-27T22:09:26.270Z,8.27
2023-09-27T22:11:57.831Z,6.13
2023-09-27T22:14:28.832Z,6.43
2023-09-27T22:17:04.505Z,8.52
2023-09-27T22:19:43.760Z,9.60
2023-09-27T22:22:22.703Z,7.60
2023-09-27T22:24:54.181Z,6.75
2023-09-27T22:27:28.240Z,5.30
2023-09-27T22:29:59.677Z,4.93
2023-09-27T22:32:33.708Z,7.15
2023-09-27T22:35:21.327Z,4.95
2023-09-27T22:37:55.008Z,6.50
2023-09-27T22:40:27.916Z,4.90
2023-09-27T22:43:00.848Z,3.53
2023-09-27T22:45:36.790Z,5.72
2023-09-27T22:48:14.695Z,3.60
2023-09-27T22:50:50.813Z,4.57
2023-09-27T22:53:24.052Z,4.32
2023-09-27T22:55:59.702Z,4.15
2023-09-27T22:58:32.983Z,3.20
2023-09-27T23:01:22.078Z,3.17
2023-09-27T23:03:55.477Z,3.40
2023-09-27T23:06:30.476Z,2.80
2023-09-27T23:09:07.888Z,4.85
2023-09-27T23:11:42.220Z,3.15
2023-09-27T23:14:23.522Z,4.10
2023-09-27T23:17:14.829Z,2.95
2023-09-27T23:22:18.992Z,4.65
2023-09-27T23:24:51.022Z,2.92
2023-09-27T23:27:28.218Z,2.53
2023-09-27T23:29:57.453Z,3.17
2023-09-27T23:32:31.649Z,4.22
2023-09-27T23:35:00.724Z,3.53
2023-09-27T23:37:36.688Z,4.65
2023-09-27T23:40:15.017Z,1.73
2023-09-27T23:42:48.539Z,4.35
2023-09-27T23:45:19.822Z,3.95
2023-09-27T23:47:52.360Z,1.73
2023-09-27T23:50:31.489Z,2.67
2023-09-27T23:53:07.168Z,1.92
2023-09-27T23:55:42.566Z,1.67
2023-09-27T23:58:14.208Z,1.60
